Time;durP1;ratioP1;P1;durP2;ratioP2;P2;SDS_P1;SDS_P2;PMS_P1;PMS_P2;Temp;Humidity;BMP_temperature;BMP_pressure;BME280_temperature;BME280_humidity;BME280_pressure;Samples;Min_cycle;Max_cycle;Signal;HPM_P1;HPM_P2
2022/06/15 00:03:45;;;;;;;1.35;0.80;;;;;;;16.35;85.29;101390.38;5021976;28;20044;-65
2022/06/15 00:06:26;;;;;;;0.70;0.40;;;;;;;16.42;84.77;101397.78;5027709;28;20022;-67
2022/06/15 00:08:54;;;;;;;1.75;0.95;;;;;;;16.23;85.57;101396.88;5028564;28;20033;-65
2022/06/15 00:11:26;;;;;;;0.45;0.40;;;;;;;16.16;85.90;101388.63;5027513;28;20033;-66
2022/06/15 00:13:54;;;;;;;0.30;0.30;;;;;;;16.16;85.85;101393.31;5034129;28;20071;-66
2022/06/15 00:16:20;;;;;;;0.77;0.57;;;;;;;16.28;86.57;101395.72;5026933;28;20098;-66
2022/06/15 00:18:46;;;;;;;0.88;0.35;;;;;;;16.40;86.68;101391.94;5020654;28;20125;-66
2022/06/15 00:21:14;;;;;;;0.63;0.63;;;;;;;16.51;86.74;101404.50;5023538;28;20033;-66
2022/06/15 00:23:40;;;;;;;1.30;0.40;;;;;;;16.42;86.00;101398.56;5012735;28;20032;-66
2022/06/15 00:26:06;;;;;;;1.45;0.52;;;;;;;16.00;86.92;101392.75;5023065;28;20143;-66
2022/06/15 00:28:32;;;;;;;0.30;0.30;;;;;;;16.39;85.64;101395.81;5017941;28;20538;-66
2022/06/15 00:30:58;;;;;;;0.32;0.28;;;;;;;16.53;85.75;101401.44;5022136;28;20060;-66
2022/06/15 00:33:26;;;;;;;0.88;0.55;;;;;;;16.62;85.51;101404.59;5022830;28;20067;-66
2022/06/15 00:36:13;;;;;;;0.32;0.30;;;;;;;16.30;86.63;101396.13;5021961;28;20046;-66
2022/06/15 00:38:45;;;;;;;0.65;0.60;;;;;;;16.14;87.48;101396.38;5023931;28;20044;-66
2022/06/15 00:41:18;;;;;;;0.77;0.50;;;;;;;16.36;87.50;101399.28;5022316;28;20037;-66
2022/06/15 00:43:52;;;;;;;0.80;0.40;;;;;;;16.40;87.22;101397.38;5022257;28;20586;-66
2022/06/15 00:46:33;;;;;;;0.60;0.40;;;;;;;16.33;87.01;101386.44;5022959;28;20049;-66
2022/06/15 00:49:24;;;;;;;0.68;0.40;;;;;;;16.25;87.89;101391.84;5027414;28;20049;-66
2022/06/15 00:51:53;;;;;;;1.48;0.47;;;;;;;16.25;87.89;101396.47;5020974;28;20069;-66
2022/06/15 00:54:21;;;;;;;0.55;0.40;;;;;;;16.25;88.05;101402.72;5029850;28;20100;-67
2022/06/15 00:56:51;;;;;;;0.43;0.32;;;;;;;16.25;87.61;101399.19;5029879;28;20064;-68
2022/06/15 00:59:30;;;;;;;1.15;0.40;;;;;;;16.21;86.92;101393.75;5025106;28;20026;-66
2022/06/15 01:01:57;;;;;;;0.30;0.30;;;;;;;16.05;88.57;101397.84;5039831;28;20044;-66
2022/06/15 01:04:25;;;;;;;0.30;0.30;;;;;;;15.84;89.31;101386.75;5037731;28;20543;-66
2022/06/15 01:07:12;;;;;;;0.50;0.40;;;;;;;15.96;88.53;101378.34;5028073;28;20033;-66
2022/06/15 01:10:01;;;;;;;0.40;0.30;;;;;;;15.92;89.06;101372.88;5030355;28;20037;-66
2022/06/15 01:12:31;;;;;;;0.47;0.47;;;;;;;15.89;89.22;101370.88;5030931;28;20485;-66
2022/06/15 01:15:25;;;;;;;0.40;0.20;;;;;;;15.93;89.11;101366.28;5013511;28;20128;-66
2022/06/15 01:18:00;;;;;;;1.27;0.73;;;;;;;16.04;88.90;101378.06;5028653;28;20041;-66
2022/06/15 01:20:38;;;;;;;0.50;0.45;;;;;;;16.02;88.68;101377.63;5030240;28;20041;-67
2022/06/15 01:23:58;;;;;;;1.10;0.50;;;;;;;16.10;88.09;101373.06;5027277;28;20030;-66
2022/06/15 01:27:01;;;;;;;1.60;0.60;;;;;;;16.04;89.06;101385.41;5029075;28;20037;-66
2022/06/15 01:29:42;;;;;;;0.93;0.40;;;;;;;15.98;89.65;101379.53;5024579;28;20052;-66
2022/06/15 01:32:29;;;;;;;0.57;0.30;;;;;;;15.86;89.87;101376.28;5027055;28;20635;-66
2022/06/15 01:34:57;;;;;;;1.35;0.45;;;;;;;16.01;89.32;101375.28;5028277;28;20042;-66
2022/06/15 01:37:52;;;;;;;0.52;0.50;;;;;;;16.10;89.44;101389.34;5044585;28;20056;-66
2022/06/15 01:40:25;;;;;;;1.08;0.47;;;;;;;15.87;89.63;101377.88;5033524;28;20041;-66
2022/06/15 01:43:01;;;;;;;0.55;0.43;;;;;;;15.80;89.83;101381.28;5031596;28;20124;-66
2022/06/15 01:45:32;;;;;;;1.45;0.50;;;;;;;15.93;89.50;101381.81;5037201;28;20120;-66
2022/06/15 01:48:04;;;;;;;0.73;0.40;;;;;;;15.98;90.16;101376.03;5029083;28;20041;-66
2022/06/15 01:50:35;;;;;;;0.45;0.43;;;;;;;16.00;90.31;101381.88;5030349;28;20051;-66
2022/06/15 01:53:10;;;;;;;0.30;0.30;;;;;;;15.78;91.40;101377.34;5024082;28;20034;-66
2022/06/15 01:55:45;;;;;;;0.50;0.43;;;;;;;15.54;91.75;101381.38;5011411;28;20029;-66
2022/06/15 01:58:14;;;;;;;0.93;0.40;;;;;;;15.74;92.28;101376.53;5033116;28;20022;-66
2022/06/15 02:00:46;;;;;;;0.40;0.30;;;;;;;15.60;91.15;101382.59;5025014;28;20079;-66
2022/06/15 02:03:16;;;;;;;0.30;0.30;;;;;;;15.75;91.34;101368.03;5025725;28;20117;-66
2022/06/15 02:05:48;;;;;;;0.32;0.32;;;;;;;15.94;90.41;101369.78;5043663;28;20512;-66
2022/06/15 02:08:24;;;;;;;0.50;0.43;;;;;;;16.14;89.50;101374.63;5028141;28;20033;-66
2022/06/15 02:11:05;;;;;;;0.77;0.50;;;;;;;16.10;90.00;101362.94;5027368;28;20068;-66
2022/06/15 02:13:42;;;;;;;0.40;0.40;;;;;;;15.68;91.32;101367.19;5036426;28;20109;-66
2022/06/15 02:16:24;;;;;;;0.70;0.45;;;;;;;15.78;91.21;101367.28;5025959;28;20037;-66
2022/06/15 02:18:54;;;;;;;0.75;0.60;;;;;;;15.93;90.95;101374.44;5023597;28;20119;-66
2022/06/15 02:21:24;;;;;;;1.48;1.30;;;;;;;16.02;90.53;101368.69;5028641;28;20400;-66
2022/06/15 02:23:56;;;;;;;;;;;;;;;15.96;90.53;101365.53;5023884;28;20108;-66
2022/06/15 02:26:25;;;;;;;0.20;0.20;;;;;;;15.80;91.75;101364.19;5024860;28;19963;-66
2022/06/15 02:28:55;;;;;;;2.80;0.30;;;;;;;16.00;90.62;101355.50;5028177;28;20655;-66
2022/06/15 02:31:21;;;;;;;0.75;0.50;;;;;;;16.10;90.89;101364.91;5015216;28;20029;-66
2022/06/15 02:33:53;;;;;;;1.45;0.50;;;;;;;15.90;90.58;101358.88;5025843;28;20059;-66
2022/06/15 02:36:19;;;;;;;0.82;0.43;;;;;;;15.94;91.04;101364.34;5030702;28;20029;-66
2022/06/15 02:38:49;;;;;;;0.85;0.47;;;;;;;15.92;90.48;101362.00;5039533;28;20025;-66
2022/06/15 02:41:19;;;;;;;0.77;0.60;;;;;;;15.79;90.31;101363.44;5041123;28;20038;-66
2022/06/15 02:43:49;;;;;;;0.65;0.65;;;;;;;16.02;89.68;101364.06;5028156;28;20030;-66
2022/06/15 02:46:17;;;;;;;0.40;0.40;;;;;;;16.11;89.85;101375.38;5025935;28;20026;-66
2022/06/15 02:48:43;;;;;;;0.85;0.30;;;;;;;16.11;89.81;101374.59;5025387;28;20043;-67
2022/06/15 02:51:21;;;;;;;1.63;0.52;;;;;;;15.28;92.09;101362.41;5041047;28;20033;-67
2022/06/15 02:53:58;;;;;;;0.20;0.20;;;;;;;15.69;91.47;101355.94;5026404;28;20833;-66
2022/06/15 02:56:24;;;;;;;1.10;0.50;;;;;;;15.93;90.53;101358.13;5023965;28;20053;-66
2022/06/15 02:58:53;;;;;;;4.28;0.47;;;;;;;16.10;89.96;101365.66;5044820;28;20124;-67
2022/06/15 03:01:20;;;;;;;0.30;0.30;;;;;;;15.99;89.87;101355.84;5027815;28;20395;-66
2022/06/15 03:03:48;;;;;;;0.65;0.40;;;;;;;15.70;91.18;101365.63;5028189;28;20037;-66
2022/06/15 03:06:27;;;;;;;0.38;0.38;;;;;;;15.86;90.99;101357.28;5027286;28;20392;-66
2022/06/15 03:08:56;;;;;;;0.47;0.30;;;;;;;16.01;90.18;101356.25;5033514;28;20060;-66
2022/06/15 03:11:32;;;;;;;0.75;0.40;;;;;;;16.07;89.65;101358.25;5028474;28;20443;-66
2022/06/15 03:14:04;;;;;;;0.88;0.35;;;;;;;16.18;89.67;101367.28;5025181;28;20428;-66
2022/06/15 03:16:32;;;;;;;0.20;0.20;;;;;;;16.08;89.47;101357.13;5013606;28;20436;-66
2022/06/15 03:18:58;;;;;;;0.30;0.30;;;;;;;16.01;89.52;101353.53;5025319;28;20068;-66
2022/06/15 03:21:24;;;;;;;1.13;0.52;;;;;;;16.10;89.11;101365.66;5038640;28;20026;-66
2022/06/15 03:23:50;;;;;;;1.08;0.50;;;;;;;16.19;89.10;101354.50;5034586;28;20059;-66
2022/06/15 03:26:17;;;;;;;0.40;0.40;;;;;;;16.13;89.09;101355.97;5036794;28;20039;-67
2022/06/15 03:28:43;;;;;;;0.47;0.47;;;;;;;16.09;88.93;101349.72;5027690;28;20116;-66
2022/06/15 03:31:13;;;;;;;0.95;0.50;;;;;;;16.24;88.45;101368.50;5012895;28;20040;-66
2022/06/15 03:33:40;;;;;;;0.40;0.40;;;;;;;16.33;88.44;101370.94;5045389;28;20112;-66
2022/06/15 03:36:10;;;;;;;0.50;0.50;;;;;;;16.22;89.14;101375.47;5009367;28;20022;-66
2022/06/15 03:38:37;;;;;;;0.65;0.45;;;;;;;16.34;88.89;101367.03;5026337;28;20071;-66
2022/06/15 03:41:16;;;;;;;0.43;0.30;;;;;;;16.26;89.52;101359.97;5029440;28;20527;-67
2022/06/15 03:43:41;;;;;;;0.90;0.50;;;;;;;16.37;89.40;101368.22;5027490;28;20182;-66
2022/06/15 03:46:10;;;;;;;0.85;0.63;;;;;;;16.43;89.55;101359.38;5028055;28;20404;-66
2022/06/15 03:48:38;;;;;;;2.65;0.68;;;;;;;16.19;90.66;101365.38;5025968;28;20472;-66
2022/06/15 03:51:04;;;;;;;0.80;0.40;;;;;;;16.33;90.22;101370.94;5028092;28;20033;-66
2022/06/15 03:53:35;;;;;;;;;;;;;;;16.31;90.50;101369.72;5029113;28;20013;-66
2022/06/15 03:56:01;;;;;;;1.35;0.40;;;;;;;16.44;89.68;101365.56;5045268;28;20054;-67
2022/06/15 03:58:27;;;;;;;1.08;0.65;;;;;;;16.49;89.02;101381.56;5042268;28;20127;-66
2022/06/15 04:00:53;;;;;;;2.15;0.90;;;;;;;16.50;89.72;101369.53;5028525;28;20208;-66
2022/06/15 04:03:22;;;;;;;1.63;0.60;;;;;;;16.49;89.68;101373.41;5024690;28;20033;-66
2022/06/15 04:05:56;;;;;;;4.88;0.50;;;;;;;16.54;89.90;101376.56;5021161;28;20410;-66
2022/06/15 04:08:37;;;;;;;0.88;0.40;;;;;;;16.55;89.91;101367.25;5026185;28;20021;-66
2022/06/15 04:13:58;;;;;;;0.47;0.45;;;;;;;16.60;88.86;101374.28;5025817;28;20393;-66
2022/06/15 04:16:23;;;;;;;1.25;0.60;;;;;;;16.69;89.49;101370.06;5027486;28;20041;-66
2022/06/15 04:18:50;;;;;;;0.43;0.43;;;;;;;16.52;88.87;101376.16;5025587;28;20131;-65
2022/06/15 04:21:16;;;;;;;0.30;0.30;;;;;;;16.36;88.82;101364.72;5027143;28;20033;-66
2022/06/15 04:23:42;;;;;;;1.00;0.60;;;;;;;16.64;87.74;101364.19;5027873;28;20026;-66
2022/06/15 04:26:09;;;;;;;1.98;0.45;;;;;;;16.80;87.13;101359.28;5021372;28;20384;-66
2022/06/15 04:28:43;;;;;;;0.65;0.60;;;;;;;16.73;87.90;101360.00;5027534;28;20041;-66
2022/06/15 04:31:18;;;;;;;0.45;0.43;;;;;;;16.79;88.47;101360.41;5033253;28;20028;-66
2022/06/15 04:33:44;;;;;;;0.40;0.35;;;;;;;16.86;88.48;101358.50;5024730;28;20038;-66
2022/06/15 04:36:13;;;;;;;0.68;0.40;;;;;;;16.89;88.09;101357.78;5039066;28;20034;-66
2022/06/15 04:38:42;;;;;;;0.85;0.40;;;;;;;16.91;87.59;101357.38;5032667;28;20065;-66
2022/06/15 04:41:09;;;;;;;0.47;0.47;;;;;;;16.99;87.79;101367.16;5025020;28;20120;-66
2022/06/15 04:43:36;;;;;;;0.75;0.60;;;;;;;17.04;87.56;101366.78;5027411;28;20032;-66
2022/06/15 04:46:04;;;;;;;1.05;0.40;;;;;;;17.06;87.27;101364.47;5043382;28;20083;-66
2022/06/15 04:48:31;;;;;;;0.65;0.60;;;;;;;16.64;87.02;101361.47;5021874;28;20034;-66
2022/06/15 04:51:12;;;;;;;0.68;0.47;;;;;;;16.75;86.58;101357.69;5044400;28;20719;-66
2022/06/15 04:53:42;;;;;;;1.15;0.47;;;;;;;16.98;86.53;101360.13;5015343;28;20906;-66
2022/06/15 04:56:08;;;;;;;0.55;0.40;;;;;;;17.13;87.13;101359.84;5025301;28;20064;-65
2022/06/15 04:58:33;;;;;;;0.98;0.50;;;;;;;17.22;87.86;101369.59;5028714;28;20415;-66
2022/06/15 05:01:01;;;;;;;0.63;0.45;;;;;;;17.27;87.73;101369.22;5024329;28;20033;-66
2022/06/15 05:03:26;;;;;;;1.08;0.57;;;;;;;17.25;87.32;101366.13;5025774;28;20030;-65
2022/06/15 05:05:56;;;;;;;0.68;0.43;;;;;;;17.35;87.32;101366.16;5027082;28;20116;-66
2022/06/15 05:08:23;;;;;;;;;;;;;;;17.34;85.64;101361.88;5028015;28;20530;-66
2022/06/15 05:10:50;;;;;;;0.30;0.30;;;;;;;17.52;84.77;101360.03;5023563;28;19928;-66
2022/06/15 05:13:16;;;;;;;0.95;0.50;;;;;;;17.58;85.22;101363.94;5009421;28;20040;-66
2022/06/15 05:15:45;;;;;;;0.30;0.30;;;;;;;17.66;85.08;101375.63;5026793;28;20033;-66
2022/06/15 05:18:12;;;;;;;0.47;0.32;;;;;;;17.71;84.33;101367.88;5025363;28;20635;-65
2022/06/15 05:20:40;;;;;;;4.10;0.47;;;;;;;17.69;83.62;101362.03;5022311;28;20192;-66
2022/06/15 05:23:13;;;;;;;0.30;0.30;;;;;;;17.75;83.69;101371.38;5026781;28;20025;-66
2022/06/15 05:25:59;;;;;;;0.55;0.35;;;;;;;17.86;83.71;101371.41;5014756;28;20549;-65
2022/06/15 05:28:25;;;;;;;0.50;0.50;;;;;;;17.86;83.97;101369.47;5015114;28;20120;-66
2022/06/15 05:31:05;;;;;;;0.32;0.32;;;;;;;17.92;83.65;101362.47;5036960;28;20488;-66
2022/06/15 05:33:33;;;;;;;0.17;0.15;;;;;;;18.01;83.20;101373.78;5034100;28;20567;-66
2022/06/15 05:36:08;;;;;;;0.52;0.40;;;;;;;18.01;82.58;101376.50;5027486;28;20507;-66
2022/06/15 05:38:35;;;;;;;0.68;0.30;;;;;;;17.97;82.30;101373.00;5031622;28;20037;-66
2022/06/15 05:41:03;;;;;;;1.15;0.30;;;;;;;18.02;82.02;101369.88;5039492;28;20033;-66
2022/06/15 05:43:34;;;;;;;0.50;0.33;;;;;;;18.06;81.79;101378.06;5027021;28;20159;-66
2022/06/15 05:46:11;;;;;;;0.47;0.25;;;;;;;18.12;81.54;101379.25;5046640;28;20139;-66
2022/06/15 05:48:37;;;;;;;0.50;0.28;;;;;;;18.20;82.04;101371.84;5031690;28;20032;-66
2022/06/15 05:51:03;;;;;;;0.40;0.40;;;;;;;18.28;82.64;101378.88;5038034;28;20389;-66
2022/06/15 05:53:30;;;;;;;0.40;0.40;;;;;;;18.29;81.12;101375.75;5031498;28;20125;-67
2022/06/15 05:55:56;;;;;;;0.50;0.50;;;;;;;18.37;79.52;101382.00;5029462;28;20289;-66
2022/06/15 05:58:21;;;;;;;0.40;0.28;;;;;;;18.45;78.40;101378.13;5028979;28;20099;-66
2022/06/15 06:00:47;;;;;;;1.23;0.40;;;;;;;18.52;78.12;101380.88;5029966;28;20480;-66
2022/06/15 06:03:12;;;;;;;0.57;0.30;;;;;;;18.53;77.92;101374.22;5027653;28;20083;-66
2022/06/15 06:05:38;;;;;;;0.30;0.30;;;;;;;18.57;78.40;101375.00;5029084;28;20242;-66
2022/06/15 06:08:05;;;;;;;0.70;0.50;;;;;;;18.65;78.62;101377.34;5041840;28;20033;-66
2022/06/15 06:10:31;;;;;;;0.40;0.30;;;;;;;18.73;78.56;101383.56;5039377;28;20029;-66
2022/06/15 06:12:56;;;;;;;0.22;0.20;;;;;;;18.74;76.88;101385.91;5027017;28;20095;-65
2022/06/15 06:15:22;;;;;;;0.30;0.30;;;;;;;18.82;76.99;101387.47;5032528;28;20507;-65
2022/06/15 06:17:47;;;;;;;0.73;0.40;;;;;;;18.62;76.69;101377.34;5038973;28;20037;-65
2022/06/15 06:20:13;;;;;;;1.05;0.50;;;;;;;18.89;76.09;101381.97;5032706;28;20032;-66
2022/06/15 06:22:38;;;;;;;0.60;0.32;;;;;;;19.00;75.17;101390.16;5030811;28;20029;-66
2022/06/15 06:25:04;;;;;;;0.22;0.22;;;;;;;19.17;74.77;101389.31;5029251;28;20025;-66
2022/06/15 06:27:30;;;;;;;0.40;0.30;;;;;;;19.27;73.72;101385.00;5030150;28;20233;-66
2022/06/15 06:29:55;;;;;;;0.73;0.22;;;;;;;19.28;72.51;101387.34;5030443;28;20034;-66
2022/06/15 06:32:22;;;;;;;0.40;0.30;;;;;;;19.37;72.74;101395.16;5030574;28;20025;-66
2022/06/15 06:34:48;;;;;;;0.20;0.20;;;;;;;19.41;72.28;101398.66;5017507;28;20048;-66
2022/06/15 06:37:15;;;;;;;0.10;0.10;;;;;;;19.49;72.90;101386.53;5031468;28;20037;-66
2022/06/15 06:39:41;;;;;;;0.28;0.25;;;;;;;19.61;72.77;101386.84;5025653;28;20037;-66
2022/06/15 06:42:07;;;;;;;2.58;0.25;;;;;;;19.67;72.90;101387.19;5036297;28;20040;-66
2022/06/15 06:44:34;;;;;;;0.30;0.10;;;;;;;19.59;71.22;101402.84;5031051;28;20026;-66
2022/06/15 06:47:00;;;;;;;0.20;0.20;;;;;;;19.66;70.87;101402.06;5028376;28;20041;-66
2022/06/15 06:49:26;;;;;;;0.20;0.20;;;;;;;19.66;71.67;101399.31;5025202;28;20108;-66
2022/06/15 06:51:52;;;;;;;0.38;0.30;;;;;;;19.47;69.31;101400.56;5044102;28;20148;-66
2022/06/15 06:54:21;;;;;;;0.65;0.25;;;;;;;19.52;70.51;101402.13;5027306;28;20042;-65
2022/06/15 06:56:47;;;;;;;0.63;0.38;;;;;;;19.70;71.43;101402.81;5019162;28;20116;-66
2022/06/15 06:59:15;;;;;;;0.65;0.50;;;;;;;19.84;70.65;101396.50;5022690;28;20026;-66
2022/06/15 07:01:42;;;;;;;0.30;0.30;;;;;;;19.97;69.13;101405.78;5020064;28;20040;-65
2022/06/15 07:04:09;;;;;;;0.47;0.30;;;;;;;20.03;69.19;101413.19;5029460;28;20040;-66
2022/06/15 07:06:36;;;;;;;0.55;0.40;;;;;;;20.18;69.21;101403.75;5020576;28;20048;-66
2022/06/15 07:09:02;;;;;;;0.30;0.28;;;;;;;20.36;68.86;101395.41;5033933;28;20037;-66
2022/06/15 07:11:27;;;;;;;0.38;0.28;;;;;;;20.44;68.76;101402.38;5035353;28;20025;-65
2022/06/15 07:13:53;;;;;;;0.98;0.63;;;;;;;20.62;68.89;101398.31;5026281;28;20758;-66
2022/06/15 07:16:20;;;;;;;0.30;0.30;;;;;;;20.60;66.38;101400.66;5041170;28;20036;-66
2022/06/15 07:18:47;;;;;;;0.20;0.20;;;;;;;20.64;64.61;101403.38;5026861;28;20216;-65
2022/06/15 07:21:17;;;;;;;0.80;0.38;;;;;;;20.67;63.89;101403.31;5026985;28;20034;-66
2022/06/15 07:23:45;;;;;;;1.13;0.75;;;;;;;20.73;62.85;101402.91;5028498;28;20076;-66
2022/06/15 07:26:16;;;;;;;0.85;0.28;;;;;;;20.87;63.34;101403.53;5025691;28;20404;-66
2022/06/15 07:28:42;;;;;;;0.63;0.30;;;;;;;21.08;62.30;101410.81;5029450;28;20029;-67
2022/06/15 07:31:09;;;;;;;0.20;0.20;;;;;;;21.19;58.88;101409.50;5025809;28;20613;-66
2022/06/15 07:33:36;;;;;;;0.00;0.00;;;;;;;21.61;60.68;101405.47;5034986;28;20033;-65
2022/06/15 07:36:03;;;;;;;0.50;0.20;;;;;;;21.50;60.40;101402.84;5027662;28;20128;-65
2022/06/15 07:38:29;;;;;;;0.28;0.25;;;;;;;21.50;60.45;101402.09;5027165;28;20037;-66
2022/06/15 07:40:57;;;;;;;0.70;0.50;;;;;;;21.46;60.39;101402.16;5028027;28;20063;-65
2022/06/15 07:43:23;;;;;;;0.30;0.30;;;;;;;21.93;60.25;101405.84;5032570;28;20037;-66
2022/06/15 07:45:49;;;;;;;0.45;0.30;;;;;;;22.15;58.77;101400.81;5028451;28;20040;-66
2022/06/15 07:51:28;;;;;;;0.52;0.15;;;;;;;22.51;54.61;101412.81;5030863;28;20049;-66
2022/06/15 07:54:10;;;;;;;1.90;0.38;;;;;;;22.65;54.55;101406.34;5043335;28;20066;-66
2022/06/15 07:56:37;;;;;;;0.43;0.10;;;;;;;22.82;52.94;101406.00;5029311;28;20563;-66
2022/06/15 07:59:03;;;;;;;0.20;0.20;;;;;;;22.88;52.55;101407.09;5033268;28;20041;-66
2022/06/15 08:01:29;;;;;;;0.60;0.20;;;;;;;22.99;51.98;101404.94;5015071;28;20489;-66
2022/06/15 08:03:55;;;;;;;0.35;0.30;;;;;;;21.86;52.84;101405.16;5034600;28;20051;-66
2022/06/15 08:06:21;;;;;;;0.10;0.10;;;;;;;22.18;54.86;101397.28;5023986;28;20511;-66
2022/06/15 08:08:47;;;;;;;0.10;0.10;;;;;;;22.92;55.58;101404.25;5037539;28;20025;-66
2022/06/15 08:11:14;;;;;;;0.30;0.20;;;;;;;23.17;53.28;101405.34;5033819;28;20044;-66
2022/06/15 08:13:41;;;;;;;0.43;0.10;;;;;;;23.08;51.13;101399.66;5024799;28;20048;-66
2022/06/15 08:16:27;;;;;;;0.20;0.10;;;;;;;23.23;51.08;101414.66;5023877;28;20116;-66
2022/06/15 08:18:58;;;;;;;0.43;0.17;;;;;;;23.49;51.75;101409.47;4982791;28;20053;-65
2022/06/15 08:21:29;;;;;;;0.73;0.13;;;;;;;23.29;50.75;101404.75;4983144;28;20497;-66
2022/06/15 08:23:57;;;;;;;0.30;0.30;;;;;;;23.05;52.04;101403.22;4983279;28;20133;-67
2022/06/15 08:26:31;;;;;;;0.10;0.10;;;;;;;22.33;52.03;101396.63;4978744;28;20027;-66
2022/06/15 08:29:00;;;;;;;0.20;0.20;;;;;;;22.49;53.60;101397.94;4968680;28;20049;-65
2022/06/15 08:31:26;;;;;;;0.20;0.20;;;;;;;21.46;53.82;101399.41;4974795;28;20126;-66
2022/06/15 08:33:51;;;;;;;0.40;0.20;;;;;;;21.56;54.73;101395.72;4984781;28;20129;-65
2022/06/15 08:36:17;;;;;;;0.13;0.13;;;;;;;21.12;55.97;101393.13;4983102;28;20096;-66
2022/06/15 08:38:43;;;;;;;0.15;0.15;;;;;;;21.22;55.26;101392.25;4980558;28;20042;-65
2022/06/15 08:41:30;;;;;;;0.20;0.10;;;;;;;21.50;53.59;101389.16;4983099;28;20097;-66
2022/06/15 08:44:04;;;;;;;0.20;0.20;;;;;;;22.11;52.46;101381.69;4980353;28;20089;-65
2022/06/15 08:46:46;;;;;;;0.88;0.50;;;;;;;22.27;52.27;101379.09;4973586;28;20042;-65
2022/06/15 08:49:19;;;;;;;0.75;0.17;;;;;;;22.58;52.42;101392.72;4979782;28;20501;-66
2022/06/15 08:51:49;;;;;;;0.30;0.30;;;;;;;22.75;51.75;101386.13;4984391;28;20465;-66
2022/06/15 08:54:17;;;;;;;0.20;0.20;;;;;;;22.80;51.75;101383.69;4985074;28;20061;-65
2022/06/15 08:56:48;;;;;;;0.10;0.10;;;;;;;22.99;51.75;101384.91;5009917;28;20043;-66
2022/06/15 08:59:16;;;;;;;0.13;0.13;;;;;;;23.27;51.91;101390.63;5016565;28;20397;-66
2022/06/15 09:01:55;;;;;;;0.20;0.20;;;;;;;23.33;48.50;101387.41;5035681;28;20118;-66
2022/06/15 09:04:33;;;;;;;0.20;0.20;;;;;;;23.19;45.80;101394.72;5017285;28;20138;-66
2022/06/15 09:07:01;;;;;;;0.43;0.30;;;;;;;23.33;47.96;101390.94;5022741;28;20029;-65
2022/06/15 09:09:39;;;;;;;1.38;0.63;;;;;;;23.56;49.77;101385.34;5027565;28;20120;-66
2022/06/15 09:15:13;;;;;;;2.70;0.50;;;;;;;24.34;47.44;101389.88;5017422;28;20038;-66
2022/06/15 09:17:39;;;;;;;1.17;0.35;;;;;;;24.51;45.50;101394.19;5014295;28;20103;-66
2022/06/15 09:20:08;;;;;;;0.50;0.28;;;;;;;24.26;44.13;101391.25;5014219;28;20041;-66
2022/06/15 09:22:39;;;;;;;0.30;0.28;;;;;;;24.31;48.06;101392.72;5014324;28;20543;-65
2022/06/15 09:25:19;;;;;;;0.30;0.20;;;;;;;24.57;47.37;101388.91;5013209;28;20029;-66
2022/06/15 09:27:53;;;;;;;0.47;0.17;;;;;;;24.79;46.54;101392.72;5012677;28;20029;-66
2022/06/15 09:30:22;;;;;;;0.63;0.20;;;;;;;25.01;46.80;101377.13;5037258;28;20036;-66
2022/06/15 09:33:00;;;;;;;0.20;0.20;;;;;;;25.44;47.04;101393.28;5008947;28;20628;-66
2022/06/15 09:35:34;;;;;;;0.30;0.30;;;;;;;25.66;44.78;101383.97;5033058;28;20041;-66
2022/06/15 09:38:02;;;;;;;0.32;0.20;;;;;;;25.91;44.96;101378.44;5015227;28;20030;-66
2022/06/15 09:40:47;;;;;;;0.20;0.20;;;;;;;26.08;41.63;101381.88;5018235;28;20033;-65
2022/06/15 09:43:22;;;;;;;0.35;0.20;;;;;;;25.12;41.55;101368.56;5030466;28;20109;-65
2022/06/15 09:45:51;;;;;;;0.28;0.28;;;;;;;25.11;43.07;101373.31;5026041;28;20124;-65
2022/06/15 09:48:37;;;;;;;0.43;0.20;;;;;;;25.31;42.01;101376.69;5007322;28;21303;-67
2022/06/15 09:51:34;;;;;;;0.40;0.25;;;;;;;25.54;43.85;101376.44;5024323;28;20029;-66
2022/06/15 09:54:34;;;;;;;4.43;0.40;;;;;;;25.44;44.38;101366.47;5032715;28;20025;-66
2022/06/15 09:57:00;;;;;;;1.08;0.30;;;;;;;26.34;41.22;101372.34;5005956;28;20072;-66
2022/06/15 09:59:26;;;;;;;0.30;0.17;;;;;;;26.70;42.40;101364.44;5017585;28;20028;-66
2022/06/15 10:01:52;;;;;;;0.35;0.15;;;;;;;27.00;42.92;101379.59;5014504;28;20599;-66
2022/06/15 10:04:28;;;;;;;0.20;0.20;;;;;;;26.23;40.85;101371.16;5015150;28;20065;-67
2022/06/15 10:07:02;;;;;;;0.40;0.30;;;;;;;26.13;43.57;101367.50;5014359;28;20121;-66
2022/06/15 10:09:32;;;;;;;0.30;0.20;;;;;;;26.20;44.03;101369.28;5013495;28;20060;-66
2022/06/15 10:12:56;;;;;;;0.93;0.30;;;;;;;26.26;42.50;101365.53;5014353;28;20026;-66
2022/06/15 10:14:51;;;;;;;0.30;0.30;;;;;;;26.41;42.80;101365.81;5014115;28;20026;-65
2022/06/15 10:17:20;;;;;;;0.20;0.20;;;;;;;26.45;43.70;101358.94;5013802;28;20064;-66
2022/06/15 10:19:48;;;;;;;0.40;0.30;;;;;;;26.27;43.59;101358.75;5014011;28;20068;-66
2022/06/15 10:22:33;;;;;;;0.65;0.47;;;;;;;26.01;44.04;101362.75;5021681;28;20156;-66
2022/06/15 10:25:04;;;;;;;0.70;0.30;;;;;;;25.90;43.99;101359.53;5017229;28;20069;-66
2022/06/15 10:27:35;;;;;;;0.30;0.30;;;;;;;25.81;44.04;101360.22;5013415;28;20488;-65
2022/06/15 10:30:07;;;;;;;;;;;;;;;25.64;43.46;101360.75;5037499;28;20040;-68
2022/06/15 10:32:34;;;;;;;1.40;0.30;;;;;;;25.51;43.56;101362.75;5012426;28;20299;-66
2022/06/15 10:35:02;;;;;;;0.30;0.17;;;;;;;24.54;42.67;101365.00;5017906;28;20037;-65
2022/06/15 10:37:30;;;;;;;0.22;0.22;;;;;;;25.18;43.20;101353.03;5015399;28;20094;-66
2022/06/15 10:40:00;;;;;;;0.32;0.30;;;;;;;24.91;42.33;101347.91;5028837;28;20025;-66
2022/06/15 10:42:38;;;;;;;0.30;0.30;;;;;;;24.75;42.98;101347.94;5016663;28;20040;-66
2022/06/15 10:45:20;;;;;;;0.17;0.17;;;;;;;24.68;43.21;101340.59;5020959;28;20060;-66
2022/06/15 10:47:54;;;;;;;0.20;0.20;;;;;;;24.83;42.88;101341.81;5025157;28;20377;-65
2022/06/15 10:50:28;;;;;;;0.40;0.30;;;;;;;25.43;43.09;101342.09;5038428;28;20443;-65
2022/06/15 10:52:59;;;;;;;0.20;0.20;;;;;;;25.79;43.50;101343.31;5013071;28;20049;-66
2022/06/15 11:04:29;;;;;;;0.30;0.30;;;;;;;27.11;41.56;101329.38;5032027;28;20184;-65
2022/06/15 11:07:04;;;;;;;0.40;0.30;;;;;;;27.69;41.64;101335.88;5037015;28;20049;-66
2022/06/15 11:09:30;;;;;;;0.32;0.32;;;;;;;28.05;41.38;101336.00;5019542;28;20818;-66
2022/06/15 11:11:58;;;;;;;0.43;0.30;;;;;;;28.23;40.26;101333.28;5015461;28;20112;-66
2022/06/15 11:14:55;;;;;;;0.50;0.40;;;;;;;28.22;39.17;101325.44;5016591;28;20081;-66
2022/06/15 11:20:45;;;;;;;0.40;0.35;;;;;;;28.59;39.50;101329.78;5028848;28;20037;-65
2022/06/15 11:23:23;;;;;;;0.50;0.43;;;;;;;28.79;37.17;101323.78;5011968;28;20092;-65
2022/06/15 11:25:55;;;;;;;0.52;0.20;;;;;;;28.89;38.93;101325.31;5009398;28;20108;-67
2022/06/15 11:28:25;;;;;;;0.30;0.30;;;;;;;29.01;38.71;101319.59;5003816;28;20038;-66
2022/06/15 11:30:58;;;;;;;0.32;0.32;;;;;;;28.54;37.46;101316.53;5004635;28;20041;-66
2022/06/15 11:33:43;;;;;;;0.57;0.20;;;;;;;28.82;39.17;101312.53;5025169;28;20034;-66
2022/06/15 11:36:25;;;;;;;0.30;0.30;;;;;;;28.98;38.85;101306.63;5021217;28;20446;-65
2022/06/15 11:39:09;;;;;;;0.20;0.20;;;;;;;28.58;38.22;101305.28;5014525;28;20041;-66
2022/06/15 11:41:50;;;;;;;0.40;0.38;;;;;;;28.44;37.48;101296.34;5016479;28;20037;-66
2022/06/15 11:44:31;;;;;;;0.30;0.30;;;;;;;28.60;37.33;101303.59;5017081;28;20041;-65
2022/06/15 11:46:59;;;;;;;0.32;0.32;;;;;;;29.02;36.73;101290.59;5021497;28;20048;-66
2022/06/15 11:49:37;;;;;;;0.60;0.40;;;;;;;29.09;37.27;101290.25;5014100;28;20473;-64
2022/06/15 11:52:03;;;;;;;0.85;0.60;;;;;;;28.89;36.70;101286.47;5023067;28;20065;-63
2022/06/15 11:54:38;;;;;;;0.50;0.40;;;;;;;28.60;38.76;101286.97;5024161;28;20075;-64
2022/06/15 11:57:33;;;;;;;0.70;0.30;;;;;;;28.41;37.82;101283.41;5018605;28;20046;-63
2022/06/15 12:00:26;;;;;;;0.43;0.30;;;;;;;28.33;37.92;101287.72;5031345;28;20033;-63
2022/06/15 12:03:05;;;;;;;0.35;0.30;;;;;;;28.53;36.54;101292.81;5015564;28;20040;-64
2022/06/15 12:05:51;;;;;;;1.70;0.47;;;;;;;28.67;38.02;101285.91;5028323;28;20037;-63
2022/06/15 12:08:29;;;;;;;0.52;0.52;;;;;;;29.01;38.61;101283.53;5031092;28;20048;-63
2022/06/15 12:14:44;;;;;;;0.30;0.30;;;;;;;28.83;38.10;101278.00;5016905;28;20414;-64